Time;durP1;ratioP1;P1;durP2;ratioP2;P2;SDS_P1;SDS_P2;PMS_P1;PMS_P2;Temp;Humidity;BMP_temperature;BMP_pressure;BME280_temperature;BME280_humidity;BME280_pressure;Samples;Min_cycle;Max_cycle;Signal;HPM_P1;HPM_P2
2023/03/10 00:01:24;;;;;;;17.30;16.80;;;21.50;47.60;;;;;;4954086;28;20546;-52
2023/03/10 00:03:52;;;;;;;16.60;16.10;;;21.50;47.60;;;;;;4953794;28;20481;-51
2023/03/10 00:06:20;;;;;;;16.50;16.00;;;21.50;47.60;;;;;;4954182;28;20871;-51
2023/03/10 00:08:49;;;;;;;16.50;16.00;;;21.40;47.50;;;;;;4953944;29;20476;-51
2023/03/10 00:11:17;;;;;;;15.80;15.33;;;21.50;47.60;;;;;;4953909;28;20476;-51
2023/03/10 00:13:44;;;;;;;16.10;15.70;;;21.50;47.70;;;;;;4953858;28;20487;-52
2023/03/10 00:16:16;;;;;;;16.43;15.90;;;21.50;47.70;;;;;;4953957;28;20507;-51
2023/03/10 00:18:44;;;;;;;16.30;15.50;;;21.50;47.70;;;;;;4954011;28;20523;-51
2023/03/10 00:21:14;;;;;;;17.97;17.47;;;21.40;47.60;;;;;;4953538;28;20452;-51
2023/03/10 00:23:41;;;;;;;15.90;15.40;;;21.50;47.70;;;;;;4953809;28;20834;-51
2023/03/10 00:26:12;;;;;;;16.50;16.00;;;21.50;47.70;;;;;;4953670;28;20500;-51
2023/03/10 00:28:39;;;;;;;16.67;16.17;;;21.50;47.70;;;;;;4953639;28;20480;-51
2023/03/10 00:31:10;;;;;;;15.80;15.30;;;21.50;47.70;;;;;;4953484;28;20488;-52
2023/03/10 00:33:37;;;;;;;15.70;15.30;;;21.50;47.70;;;;;;4953609;28;20488;-53
2023/03/10 00:36:08;;;;;;;15.83;15.43;;;21.50;47.70;;;;;;4953578;28;20472;-52
2023/03/10 00:38:36;;;;;;;15.80;15.30;;;21.40;47.70;;;;;;4953722;28;20491;-51
2023/03/10 00:41:05;;;;;;;16.00;15.50;;;21.40;47.70;;;;;;4953259;28;20480;-51
2023/03/10 00:43:34;;;;;;;16.33;15.93;;;21.40;47.80;;;;;;4953407;28;20479;-51
2023/03/10 00:46:01;;;;;;;16.77;16.27;;;21.40;47.80;;;;;;4953471;28;20570;-51
2023/03/10 00:48:29;;;;;;;16.47;15.97;;;21.40;47.80;;;;;;4953550;28;21202;-52
2023/03/10 00:50:56;;;;;;;15.60;14.70;;;21.40;47.80;;;;;;4953142;28;20481;-51
2023/03/10 00:53:23;;;;;;;15.30;14.90;;;21.40;47.70;;;;;;4953173;28;20974;-50
2023/03/10 00:56:01;;;;;;;16.07;15.57;;;21.40;47.70;;;;;;4953382;28;20880;-50
2023/03/10 00:58:29;;;;;;;16.47;16.07;;;21.40;47.70;;;;;;4953195;28;20448;-51
2023/03/10 01:00:58;;;;;;;16.87;16.27;;;21.40;47.70;;;;;;4953062;28;20922;-52
2023/03/10 01:03:26;;;;;;;16.60;16.10;;;21.40;47.80;;;;;;4953216;28;20536;-49
2023/03/10 01:05:53;;;;;;;16.23;15.83;;;21.40;47.80;;;;;;4951958;28;20534;-52
2023/03/10 01:08:21;;;;;;;15.60;15.13;;;21.40;47.80;;;;;;4953215;28;20480;-51
2023/03/10 01:10:48;;;;;;;16.93;16.43;;;21.40;47.80;;;;;;4953016;28;20524;-55
2023/03/10 01:13:17;;;;;;;16.17;15.67;;;21.40;47.90;;;;;;4953085;29;20487;-54
2023/03/10 01:15:46;;;;;;;15.20;14.80;;;21.40;47.90;;;;;;4953245;28;20468;-52
2023/03/10 01:18:15;;;;;;;15.37;14.97;;;21.30;47.80;;;;;;4953051;28;20464;-51
2023/03/10 01:20:43;;;;;;;15.60;15.10;;;21.30;47.80;;;;;;4952959;28;20516;-51
2023/03/10 01:23:14;;;;;;;15.83;15.43;;;21.30;47.90;;;;;;4952867;28;20483;-51
2023/03/10 01:25:41;;;;;;;15.60;15.20;;;21.30;47.90;;;;;;4952987;28;20845;-51
2023/03/10 01:28:09;;;;;;;15.63;15.23;;;21.30;47.90;;;;;;4952700;28;20495;-52
2023/03/10 01:30:36;;;;;;;15.00;14.60;;;21.30;48.00;;;;;;4953052;28;20456;-51
2023/03/10 01:33:02;;;;;;;15.10;14.60;;;21.30;48.00;;;;;;4952756;28;20484;-51
2023/03/10 01:35:31;;;;;;;15.30;14.90;;;21.30;48.00;;;;;;4952611;28;20548;-52
2023/03/10 01:37:58;;;;;;;18.20;17.53;;;21.30;48.00;;;;;;4952681;28;20540;-51
2023/03/10 01:40:25;;;;;;;16.20;15.73;;;21.30;48.00;;;;;;4952617;28;20908;-52
2023/03/10 01:42:52;;;;;;;16.07;15.57;;;21.30;48.00;;;;;;4952280;28;20460;-51
2023/03/10 01:45:56;;;;;;;16.47;16.00;;;21.30;48.00;;;;;;4952674;28;20516;-52
2023/03/10 01:48:24;;;;;;;15.60;15.20;;;21.30;48.00;;;;;;4952575;28;20487;-51
2023/03/10 01:50:55;;;;;;;15.20;14.80;;;21.30;48.10;;;;;;4952604;28;20473;-50
2023/03/10 01:53:24;;;;;;;16.10;15.70;;;21.30;48.10;;;;;;4952321;29;20485;-52
2023/03/10 01:55:55;;;;;;;16.17;15.77;;;21.30;48.20;;;;;;4952376;28;20515;-51
2023/03/10 01:58:24;;;;;;;15.57;15.07;;;21.30;48.20;;;;;;4952429;28;20542;-50
2023/03/10 02:00:53;;;;;;;15.83;15.33;;;21.20;48.20;;;;;;4952456;28;20845;-50
2023/03/10 02:03:24;;;;;;;15.73;15.30;;;21.30;48.30;;;;;;4952408;28;20476;-50
2023/03/10 02:05:56;;;;;;;15.67;15.27;;;21.20;48.20;;;;;;4952127;28;20511;-51
2023/03/10 02:08:25;;;;;;;15.40;15.00;;;21.20;48.20;;;;;;4951805;28;20480;-51
2023/03/10 02:10:53;;;;;;;15.90;15.40;;;21.20;48.30;;;;;;4952008;28;20473;-51
2023/03/10 02:13:20;;;;;;;21.07;20.47;;;21.20;48.30;;;;;;4952166;28;20481;-52
2023/03/10 02:15:46;;;;;;;19.47;18.97;;;21.20;48.30;;;;;;4951842;28;20940;-50
2023/03/10 02:18:15;;;;;;;20.07;19.47;;;21.20;48.30;;;;;;4951901;28;21021;-50
2023/03/10 02:20:48;;;;;;;19.17;18.57;;;21.20;48.30;;;;;;4951499;29;20517;-50
2023/03/10 02:23:24;;;;;;;19.20;18.70;;;21.20;48.30;;;;;;4951961;28;20491;-52
2023/03/10 02:25:54;;;;;;;18.53;18.03;;;21.20;48.30;;;;;;4952080;28;20499;-53
2023/03/10 02:28:23;;;;;;;18.30;17.80;;;21.20;48.30;;;;;;4951967;28;20492;-51
2023/03/10 02:30:52;;;;;;;22.03;21.40;;;21.20;48.30;;;;;;4952021;28;20485;-52
2023/03/10 02:33:23;;;;;;;20.97;20.37;;;21.20;48.30;;;;;;4951643;28;20814;-50
2023/03/10 02:35:50;;;;;;;19.97;19.47;;;21.20;48.30;;;;;;4951928;28;20500;-51
2023/03/10 02:38:17;;;;;;;19.83;19.33;;;21.20;48.40;;;;;;4951563;28;20511;-52
2023/03/10 02:40:46;;;;;;;19.30;18.80;;;21.20;48.40;;;;;;4951811;28;20523;-51
2023/03/10 02:43:18;;;;;;;20.07;19.57;;;21.20;48.40;;;;;;4951819;28;20881;-54
2023/03/10 02:45:47;;;;;;;19.97;19.37;;;21.20;48.50;;;;;;4952136;28;20534;-55
2023/03/10 02:48:20;;;;;;;20.60;20.00;;;21.20;48.50;;;;;;4951174;28;20484;-51
2023/03/10 02:50:47;;;;;;;19.53;18.93;;;21.10;48.40;;;;;;4951578;28;20480;-51
2023/03/10 02:53:18;;;;;;;21.10;20.50;;;21.20;48.50;;;;;;4951263;28;20488;-50
2023/03/10 02:55:45;;;;;;;19.83;19.33;;;21.20;48.50;;;;;;4951494;28;20548;-51
2023/03/10 02:58:12;;;;;;;20.97;20.37;;;21.10;48.40;;;;;;4951166;28;20535;-52
2023/03/10 03:00:40;;;;;;;20.90;20.30;;;21.20;48.50;;;;;;4950762;28;20580;-51
2023/03/10 03:03:10;;;;;;;22.10;21.50;;;21.20;48.50;;;;;;4951233;28;20484;-51
2023/03/10 03:05:37;;;;;;;20.67;20.07;;;21.20;48.50;;;;;;4951339;28;20492;-50
2023/03/10 03:08:05;;;;;;;21.10;20.40;;;21.20;48.60;;;;;;4950980;28;20488;-51
2023/03/10 03:10:32;;;;;;;21.53;20.93;;;21.10;48.60;;;;;;4951193;29;20475;-51
2023/03/10 03:12:59;;;;;;;21.20;20.60;;;21.10;48.60;;;;;;4951176;28;20492;-51
2023/03/10 03:15:26;;;;;;;19.87;19.37;;;21.10;48.60;;;;;;4951264;28;20500;-51
2023/03/10 03:17:54;;;;;;;20.00;19.50;;;21.10;48.60;;;;;;4951010;28;20488;-52
2023/03/10 03:20:22;;;;;;;20.67;20.07;;;21.10;48.60;;;;;;4951282;28;20496;-52
2023/03/10 03:22:49;;;;;;;21.70;21.10;;;21.10;48.60;;;;;;4951082;28;20979;-52
2023/03/10 03:25:18;;;;;;;19.90;19.30;;;21.10;48.60;;;;;;4951053;28;20531;-51
2023/03/10 03:27:46;;;;;;;19.67;19.13;;;21.10;48.70;;;;;;4949997;28;20481;-51
2023/03/10 03:30:16;;;;;;;17.53;17.03;;;21.10;48.60;;;;;;4951006;28;20998;-51
2023/03/10 03:32:43;;;;;;;16.90;16.40;;;21.20;48.70;;;;;;4950906;28;20499;-50
2023/03/10 03:35:12;;;;;;;16.10;15.70;;;21.10;48.70;;;;;;4950948;28;21080;-51
2023/03/10 03:37:41;;;;;;;16.53;16.07;;;21.20;48.80;;;;;;4950623;28;20968;-51
2023/03/10 03:40:12;;;;;;;16.20;15.80;;;21.10;48.70;;;;;;4950837;28;20920;-51
2023/03/10 03:42:39;;;;;;;15.70;15.30;;;21.10;48.70;;;;;;4951009;28;20453;-51
2023/03/10 03:45:07;;;;;;;16.43;15.93;;;21.10;48.70;;;;;;4950755;28;20481;-52
2023/03/10 03:47:34;;;;;;;15.30;14.90;;;21.10;48.80;;;;;;4950607;28;20502;-52
2023/03/10 03:50:02;;;;;;;14.90;14.50;;;21.10;48.80;;;;;;4950984;28;20715;-53
2023/03/10 03:52:29;;;;;;;16.57;16.17;;;21.10;48.90;;;;;;4950404;29;20487;-56
2023/03/10 03:54:57;;;;;;;16.33;15.93;;;21.10;48.90;;;;;;4950696;28;20495;-54
2023/03/10 03:57:24;;;;;;;16.70;16.30;;;21.10;48.80;;;;;;4950580;28;20499;-52
2023/03/10 03:59:51;;;;;;;18.03;17.53;;;21.10;48.90;;;;;;4950608;28;20887;-52
2023/03/10 04:02:18;;;;;;;16.03;15.63;;;21.10;48.90;;;;;;4950546;28;20890;-51
2023/03/10 04:04:45;;;;;;;16.03;15.63;;;21.10;48.90;;;;;;4950571;28;20484;-54
2023/03/10 04:07:13;;;;;;;16.90;16.50;;;21.10;48.90;;;;;;4950213;28;20495;-56
2023/03/10 04:09:40;;;;;;;17.10;16.60;;;21.10;48.90;;;;;;4950515;28;20457;-54
2023/03/10 04:12:10;;;;;;;15.47;15.07;;;21.10;48.90;;;;;;4950489;28;20492;-54
2023/03/10 04:14:37;;;;;;;14.70;14.30;;;21.10;48.90;;;;;;4950407;28;20481;-56
2023/03/10 04:17:05;;;;;;;15.53;15.13;;;21.10;49.00;;;;;;4950235;29;20481;-55
2023/03/10 04:19:32;;;;;;;16.47;16.03;;;21.10;49.00;;;;;;4950406;28;20503;-53
2023/03/10 04:21:59;;;;;;;13.97;13.67;;;21.10;49.00;;;;;;4950229;28;20518;-51
2023/03/10 04:24:26;;;;;;;15.33;14.93;;;21.10;49.00;;;;;;4950398;28;20445;-51
2023/03/10 04:26:52;;;;;;;15.50;15.10;;;21.10;49.00;;;;;;4949938;28;20504;-52
2023/03/10 04:29:23;;;;;;;15.73;15.33;;;21.00;49.00;;;;;;4950363;28;20485;-53
2023/03/10 04:31:50;;;;;;;15.43;15.03;;;21.00;49.00;;;;;;4950299;28;20503;-51
2023/03/10 04:34:17;;;;;;;15.30;14.90;;;21.10;49.10;;;;;;4950258;28;20484;-51
2023/03/10 04:36:44;;;;;;;14.60;14.30;;;21.10;49.10;;;;;;4949816;28;20894;-51
2023/03/10 04:39:11;;;;;;;15.30;14.90;;;21.10;49.10;;;;;;4951094;28;20484;-51
2023/03/10 04:41:38;;;;;;;15.73;15.33;;;21.10;49.10;;;;;;4953336;28;21038;-52
2023/03/10 04:44:05;;;;;;;15.50;15.10;;;21.10;49.10;;;;;;4953641;28;20807;-53
2023/03/10 04:46:33;;;;;;;15.07;14.67;;;21.10;49.10;;;;;;4953008;28;20519;-52
2023/03/10 04:49:00;;;;;;;14.53;14.13;;;21.10;49.10;;;;;;4953388;28;20487;-51
2023/03/10 04:51:27;;;;;;;14.43;14.03;;;21.10;49.10;;;;;;4953175;28;20472;-51
2023/03/10 04:53:54;;;;;;;15.40;15.00;;;21.10;49.10;;;;;;4953341;28;20480;-52
2023/03/10 04:56:21;;;;;;;15.23;14.83;;;21.10;49.10;;;;;;4952964;28;20500;-52
2023/03/10 04:58:47;;;;;;;14.60;14.30;;;21.10;49.10;;;;;;4953308;28;20510;-52
2023/03/10 05:01:16;;;;;;;16.80;16.40;;;21.10;49.10;;;;;;4952928;28;20516;-51
2023/03/10 05:03:44;;;;;;;16.17;15.77;;;21.20;49.20;;;;;;4953189;28;20477;-51
2023/03/10 05:06:14;;;;;;;16.20;15.80;;;21.20;49.20;;;;;;4952645;28;20822;-52
2023/03/10 05:08:41;;;;;;;15.80;15.20;;;21.20;49.20;;;;;;4953126;28;20812;-52
2023/03/10 05:11:09;;;;;;;17.37;16.87;;;21.20;49.20;;;;;;4952984;28;20476;-51
2023/03/10 05:13:36;;;;;;;16.43;16.03;;;21.20;49.20;;;;;;4952899;28;20484;-54
2023/03/10 05:16:03;;;;;;;16.20;15.60;;;21.20;49.30;;;;;;4952640;28;21038;-54
2023/03/10 05:18:30;;;;;;;17.60;17.10;;;21.20;49.30;;;;;;4952796;29;20490;-51
2023/03/10 05:20:59;;;;;;;17.23;16.10;;;21.20;49.40;;;;;;4952700;28;20563;-52
2023/03/10 05:23:26;;;;;;;15.17;14.77;;;21.20;49.50;;;;;;4952752;28;20457;-51
2023/03/10 05:25:52;;;;;;;15.03;14.67;;;21.20;49.50;;;;;;4952494;28;20914;-52
2023/03/10 05:28:19;;;;;;;15.30;14.90;;;21.20;49.60;;;;;;4952772;28;20486;-50
2023/03/10 05:30:46;;;;;;;14.90;14.50;;;21.20;49.60;;;;;;4952766;28;20473;-51
2023/03/10 05:33:13;;;;;;;15.40;15.00;;;21.20;49.40;;;;;;4952519;28;20449;-51
2023/03/10 05:35:40;;;;;;;15.27;14.87;;;21.20;49.30;;;;;;4952369;28;20981;-54
2023/03/10 05:38:09;;;;;;;15.70;15.10;;;21.20;49.30;;;;;;4952602;28;20459;-52
2023/03/10 05:40:35;;;;;;;17.00;16.10;;;21.20;49.30;;;;;;4952234;28;20567;-51
2023/03/10 05:43:02;;;;;;;18.03;16.73;;;21.20;50.10;;;;;;4950696;28;20874;-56
2023/03/10 05:45:29;;;;;;;17.70;16.90;;;21.20;52.10;;;;;;4952071;28;20858;-55
2023/03/10 05:47:56;;;;;;;17.53;16.90;;;21.20;51.70;;;;;;4952532;28;20527;-51
2023/03/10 05:50:23;;;;;;;16.77;15.57;;;21.20;51.80;;;;;;4951758;28;20491;-51
2023/03/10 05:52:50;;;;;;;17.70;16.60;;;21.30;51.80;;;;;;4952045;28;20496;-55
2023/03/10 05:55:19;;;;;;;16.40;15.77;;;21.30;51.60;;;;;;4952105;28;20526;-52
2023/03/10 05:57:47;;;;;;;17.57;16.50;;;21.30;51.50;;;;;;4952247;29;20476;-56
2023/03/10 06:00:16;;;;;;;18.60;17.33;;;21.30;51.30;;;;;;4952173;28;20480;-54
2023/03/10 06:02:43;;;;;;;17.47;16.70;;;21.40;51.10;;;;;;4952058;28;20488;-52
2023/03/10 06:05:11;;;;;;;18.03;16.80;;;21.40;50.90;;;;;;4952024;28;20496;-54
2023/03/10 06:07:38;;;;;;;18.57;17.37;;;21.40;50.80;;;;;;4952131;29;20468;-51
2023/03/10 06:10:06;;;;;;;16.60;15.90;;;21.40;50.60;;;;;;4952157;28;20484;-53
2023/03/10 06:12:34;;;;;;;16.60;16.00;;;21.40;50.50;;;;;;4951777;29;20487;-51
2023/03/10 06:15:01;;;;;;;17.87;16.90;;;21.40;50.40;;;;;;4952025;28;20500;-52
2023/03/10 06:17:28;;;;;;;18.23;17.50;;;21.40;50.30;;;;;;4951997;28;20495;-57
2023/03/10 06:19:55;;;;;;;18.03;17.23;;;21.50;50.30;;;;;;4951924;28;20488;-53
2023/03/10 06:22:22;;;;;;;18.13;17.43;;;21.50;50.20;;;;;;4951703;29;20516;-52
2023/03/10 06:24:48;;;;;;;17.30;16.70;;;21.50;50.10;;;;;;4951754;28;20491;-54
2023/03/10 06:27:15;;;;;;;18.33;17.53;;;21.50;50.00;;;;;;4951817;28;20489;-55
2023/03/10 06:29:44;;;;;;;16.93;15.83;;;21.50;49.90;;;;;;4951858;28;20488;-57
2023/03/10 06:32:11;;;;;;;17.27;16.60;;;21.50;49.80;;;;;;4951796;28;20477;-51
2023/03/10 06:34:38;;;;;;;18.37;17.57;;;21.50;49.70;;;;;;4951656;28;20476;-53
2023/03/10 06:37:05;;;;;;;18.23;17.17;;;21.60;49.80;;;;;;4951714;28;20492;-53
2023/03/10 06:39:31;;;;;;;16.43;15.93;;;21.60;49.70;;;;;;4951672;28;20485;-55
2023/03/10 06:42:00;;;;;;;16.80;16.10;;;21.60;49.60;;;;;;4951379;28;20572;-54
2023/03/10 06:44:27;;;;;;;17.07;16.27;;;21.60;49.50;;;;;;4951494;28;20477;-55
2023/03/10 06:46:55;;;;;;;17.43;16.63;;;21.60;49.40;;;;;;4951369;28;20756;-53
2023/03/10 06:49:22;;;;;;;15.93;15.43;;;21.60;49.30;;;;;;4951514;28;20476;-53
2023/03/10 06:51:49;;;;;;;16.70;16.00;;;21.60;49.30;;;;;;4951364;28;20874;-51
2023/03/10 06:54:16;;;;;;;15.60;15.00;;;21.60;49.20;;;;;;4951420;28;20453;-52
2023/03/10 06:56:43;;;;;;;15.60;14.90;;;21.70;49.20;;;;;;4951361;28;20560;-53
2023/03/10 06:59:09;;;;;;;16.17;15.40;;;21.60;49.10;;;;;;4951454;28;20491;-52
2023/03/10 07:01:36;;;;;;;16.07;15.53;;;21.60;49.00;;;;;;4950990;28;20531;-52
2023/03/10 07:04:05;;;;;;;15.63;15.13;;;21.60;49.00;;;;;;4951211;28;20481;-51
2023/03/10 07:06:32;;;;;;;15.63;15.03;;;21.60;49.00;;;;;;4951177;28;20979;-53
2023/03/10 07:08:59;;;;;;;15.13;14.53;;;21.60;48.90;;;;;;4951200;28;20572;-51
2023/03/10 07:11:26;;;;;;;15.93;15.33;;;21.60;48.90;;;;;;4950971;28;20441;-51
2023/03/10 07:13:53;;;;;;;16.50;15.60;;;21.60;48.80;;;;;;4951119;28;20496;-51
2023/03/10 07:16:21;;;;;;;16.30;15.60;;;21.60;48.80;;;;;;4951120;28;20475;-54
2023/03/10 07:18:48;;;;;;;15.07;14.53;;;21.60;48.80;;;;;;4951038;28;20872;-53
2023/03/10 07:21:18;;;;;;;16.80;16.00;;;21.60;48.70;;;;;;4950862;29;20520;-53
2023/03/10 07:23:45;;;;;;;16.67;16.07;;;21.60;48.70;;;;;;4950997;28;20527;-52
2023/03/10 07:26:14;;;;;;;17.03;16.30;;;21.60;48.70;;;;;;4950904;28;20503;-51
2023/03/10 07:28:41;;;;;;;16.73;16.23;;;21.60;48.90;;;;;;4950948;28;20480;-53
2023/03/10 07:31:10;;;;;;;17.33;16.80;;;21.60;48.60;;;;;;4950911;28;20488;-52
2023/03/10 07:33:38;;;;;;;17.00;16.37;;;21.60;48.60;;;;;;4950868;28;20480;-51
2023/03/10 07:36:06;;;;;;;16.50;15.90;;;21.60;48.60;;;;;;4950777;28;21014;-53
2023/03/10 07:38:34;;;;;;;14.60;14.20;;;21.60;48.60;;;;;;4950875;28;20484;-54
2023/03/10 07:41:01;;;;;;;15.30;14.70;;;21.60;48.60;;;;;;4950739;28;20540;-54
2023/03/10 07:43:28;;;;;;;15.00;14.33;;;21.60;48.60;;;;;;4950683;28;20485;-52
2023/03/10 07:45:55;;;;;;;15.10;14.53;;;21.60;48.60;;;;;;4950535;28;20512;-54
2023/03/10 07:48:22;;;;;;;15.83;15.33;;;21.60;48.50;;;;;;4950790;28;20492;-54
2023/03/10 07:50:56;;;;;;;15.10;14.60;;;21.60;48.50;;;;;;4950670;28;20482;-51
2023/03/10 07:53:23;;;;;;;16.07;15.47;;;21.60;48.50;;;;;;4950603;28;20452;-53
2023/03/10 07:55:51;;;;;;;16.27;15.53;;;21.70;48.50;;;;;;4950572;29;20634;-53
2023/03/10 07:58:18;;;;;;;15.73;15.23;;;21.70;48.50;;;;;;4950596;28;20952;-54
2023/03/10 08:00:45;;;;;;;15.60;15.17;;;21.70;48.50;;;;;;4950486;28;20480;-51
2023/03/10 08:03:12;;;;;;;16.07;15.57;;;21.70;48.50;;;;;;4950190;28;20516;-56
2023/03/10 08:05:41;;;;;;;16.17;15.60;;;21.70;48.50;;;;;;4950463;28;20504;-56
2023/03/10 08:08:08;;;;;;;16.33;15.83;;;21.70;48.40;;;;;;4950516;28;20540;-52
2023/03/10 08:10:34;;;;;;;15.93;15.27;;;21.70;48.40;;;;;;4950439;28;20485;-54
2023/03/10 08:13:03;;;;;;;15.40;14.83;;;21.70;48.40;;;;;;4950168;28;20944;-56
2023/03/10 08:15:30;;;;;;;15.30;14.80;;;21.70;48.40;;;;;;4952956;28;20476;-54
2023/03/10 08:17:57;;;;;;;16.10;15.50;;;21.70;48.30;;;;;;4953770;28;20484;-53
2023/03/10 08:20:24;;;;;;;14.10;13.70;;;21.70;48.30;;;;;;4953710;29;20531;-53
2023/03/10 08:22:53;;;;;;;16.40;15.87;;;21.70;48.30;;;;;;4953402;28;20516;-51
2023/03/10 08:25:20;;;;;;;16.40;15.80;;;21.70;48.20;;;;;;4953490;28;20498;-52
2023/03/10 08:27:47;;;;;;;16.57;16.07;;;21.70;48.30;;;;;;4953535;28;20488;-53
2023/03/10 08:30:15;;;;;;;16.60;16.10;;;21.80;48.30;;;;;;4953437;28;20499;-51
2023/03/10 08:32:42;;;;;;;17.97;17.27;;;21.70;48.20;;;;;;4953260;29;20884;-52
2023/03/10 08:35:10;;;;;;;15.20;14.80;;;21.70;48.20;;;;;;4953529;28;20500;-55
2023/03/10 08:37:37;;;;;;;15.60;15.20;;;21.70;48.20;;;;;;4953397;28;20487;-56
2023/03/10 08:40:06;;;;;;;16.90;16.40;;;21.70;48.20;;;;;;4953443;28;20452;-57
2023/03/10 08:42:35;;;;;;;16.43;15.93;;;21.70;48.20;;;;;;4953074;28;20488;-54
2023/03/10 08:45:06;;;;;;;16.70;15.90;;;21.70;48.10;;;;;;4953328;28;20952;-55
2023/03/10 08:47:35;;;;;;;16.30;15.70;;;21.70;48.20;;;;;;4953182;28;20459;-53
2023/03/10 08:50:02;;;;;;;15.87;15.47;;;21.70;48.10;;;;;;4953292;29;20871;-53
2023/03/10 08:52:29;;;;;;;15.50;15.10;;;21.70;48.70;;;;;;4953053;28;20976;-56
2023/03/10 08:54:55;;;;;;;16.83;16.33;;;21.70;48.10;;;;;;4953079;28;20488;-53
2023/03/10 08:57:22;;;;;;;16.63;16.23;;;21.70;48.10;;;;;;4953160;28;20487;-53
2023/03/10 08:59:50;;;;;;;16.63;16.03;;;21.70;48.10;;;;;;4952979;28;20488;-53
2023/03/10 09:02:20;;;;;;;15.60;15.20;;;21.70;48.10;;;;;;4952926;28;20506;-57
2023/03/10 09:04:49;;;;;;;15.60;15.20;;;21.70;48.10;;;;;;4953042;28;20674;-57
2023/03/10 09:07:16;;;;;;;16.33;15.83;;;21.70;48.10;;;;;;4952972;28;20889;-53
2023/03/10 09:09:43;;;;;;;15.33;14.93;;;21.70;48.10;;;;;;4953035;28;20483;-55
2023/03/10 09:12:11;;;;;;;14.97;14.57;;;21.70;48.10;;;;;;4952784;28;20956;-55
2023/03/10 09:14:38;;;;;;;15.97;15.57;;;21.70;48.10;;;;;;4952985;28;20952;-54
2023/03/10 09:17:06;;;;;;;15.37;14.97;;;21.70;48.10;;;;;;4952920;28;20476;-56
2023/03/10 09:19:33;;;;;;;14.40;14.00;;;21.70;48.10;;;;;;4952821;29;20460;-57
2023/03/10 09:22:01;;;;;;;16.47;15.87;;;21.70;48.00;;;;;;4952697;28;20533;-56
2023/03/10 09:24:28;;;;;;;14.50;14.10;;;21.70;48.00;;;;;;4952726;28;20453;-53
2023/03/10 09:26:55;;;;;;;15.40;15.00;;;21.70;48.00;;;;;;4951559;28;20492;-56
2023/03/10 09:29:22;;;;;;;15.33;14.93;;;21.70;48.00;;;;;;4952585;28;20452;-53
2023/03/10 09:31:49;;;;;;;15.50;14.80;;;21.70;48.10;;;;;;4952491;28;20488;-56
2023/03/10 09:34:16;;;;;;;14.70;14.30;;;21.70;48.00;;;;;;4952526;28;20489;-54
2023/03/10 09:36:43;;;;;;;16.00;15.53;;;21.70;48.00;;;;;;4952500;28;20505;-52
2023/03/10 09:39:11;;;;;;;15.10;14.63;;;21.80;48.10;;;;;;4952620;28;20971;-52
2023/03/10 09:42:11;;;;;;;16.23;15.70;;;21.80;48.10;;;;;;4952309;28;20452;-53
2023/03/10 09:44:42;;;;;;;16.30;15.90;;;21.80;48.10;;;;;;4952388;28;20531;-53
2023/03/10 09:47:24;;;;;;;15.20;14.80;;;21.80;48.10;;;;;;4952361;28;20453;-54
2023/03/10 09:50:06;;;;;;;15.80;15.30;;;21.80;48.10;;;;;;4952320;28;20475;-53
2023/03/10 09:52:41;;;;;;;15.10;14.67;;;21.80;48.00;;;;;;4952412;28;20481;-55
2023/03/10 09:55:20;;;;;;;14.63;14.23;;;21.80;48.00;;;;;;4952416;28;20549;-57
2023/03/10 09:57:49;;;;;;;16.07;15.60;;;21.80;48.00;;;;;;4952301;28;20476;-54
2023/03/10 10:00:21;;;;;;;16.43;15.83;;;21.80;48.00;;;;;;4952257;29;20456;-56
2023/03/10 10:02:55;;;;;;;15.93;15.53;;;21.80;48.00;;;;;;4951974;28;20575;-54
2023/03/10 10:05:25;;;;;;;16.20;15.80;;;21.80;48.00;;;;;;4952369;28;20551;-53
2023/03/10 10:07:56;;;;;;;16.57;16.07;;;21.80;47.90;;;;;;4952212;28;20472;-53
2023/03/10 10:10:28;;;;;;;15.90;15.50;;;21.80;47.90;;;;;;4952323;28;20452;-55
2023/03/10 10:12:58;;;;;;;16.43;16.03;;;21.80;47.90;;;;;;4951857;28;20472;-52
2023/03/10 10:15:26;;;;;;;15.90;15.50;;;21.80;47.90;;;;;;4952016;28;20504;-52
2023/03/10 10:18:07;;;;;;;16.90;16.30;;;21.80;48.00;;;;;;4951907;28;20538;-54
2023/03/10 10:20:38;;;;;;;16.07;15.67;;;21.80;47.90;;;;;;4952012;28;20885;-52
2023/03/10 10:23:13;;;;;;;16.33;15.83;;;21.80;47.90;;;;;;4951773;28;20903;-55
2023/03/10 10:25:41;;;;;;;17.07;16.53;;;21.80;47.90;;;;;;4951886;28;20468;-56
2023/03/10 10:28:19;;;;;;;16.37;15.97;;;21.80;47.90;;;;;;4951765;28;20910;-56
2023/03/10 10:30:47;;;;;;;16.47;16.03;;;21.80;47.90;;;;;;4951929;28;20536;-52
2023/03/10 10:33:15;;;;;;;17.13;16.63;;;21.80;47.90;;;;;;4951709;28;20487;-55
2023/03/10 10:35:45;;;;;;;16.33;15.93;;;21.80;47.90;;;;;;4952205;28;20502;-54
2023/03/10 10:38:24;;;;;;;15.80;15.40;;;21.80;47.90;;;;;;4960428;28;20453;-57
2023/03/10 10:41:01;;;;;;;16.50;15.97;;;21.80;47.90;;;;;;4953052;28;20449;-57
2023/03/10 10:43:28;;;;;;;16.20;15.70;;;21.80;47.90;;;;;;4951287;29;20491;-56
2023/03/10 10:45:56;;;;;;;16.50;16.00;;;21.80;47.90;;;;;;4951554;28;20512;-56
2023/03/10 10:48:39;;;;;;;16.93;16.43;;;21.80;48.00;;;;;;4951350;28;20535;-56
2023/03/10 10:51:18;;;;;;;17.13;16.73;;;21.80;47.90;;;;;;4951612;28;20445;-57
2023/03/10 10:53:45;;;;;;;18.83;18.23;;;21.80;48.00;;;;;;4951462;28;20542;-58
2023/03/10 10:56:16;;;;;;;16.70;16.20;;;21.80;48.00;;;;;;4951511;28;20500;-57
2023/03/10 10:58:44;;;;;;;16.13;15.63;;;21.80;47.90;;;;;;4951759;28;20479;-53
2023/03/10 11:01:13;;;;;;;16.20;15.80;;;21.80;48.00;;;;;;4951700;28;20491;-56
2023/03/10 11:03:42;;;;;;;16.10;15.70;;;21.80;48.00;;;;;;4951484;28;20902;-54
2023/03/10 11:06:23;;;;;;;16.40;16.00;;;21.80;48.00;;;;;;4951616;28;20896;-56
2023/03/10 11:08:51;;;;;;;14.87;14.47;;;21.80;47.90;;;;;;4951470;28;20978;-58
2023/03/10 11:11:28;;;;;;;15.47;15.07;;;21.80;47.90;;;;;;4951013;28;20452;-56
2023/03/10 11:14:05;;;;;;;15.97;15.57;;;21.80;48.00;;;;;;4951266;28;20480;-53
2023/03/10 11:16:42;;;;;;;15.50;15.10;;;21.80;47.90;;;;;;4951100;28;20555;-58
2023/03/10 11:19:16;;;;;;;16.30;15.80;;;21.80;47.90;;;;;;4951220;28;20484;-54
2023/03/10 11:21:48;;;;;;;16.70;16.30;;;21.80;47.90;;;;;;4951139;28;20448;-58
2023/03/10 11:24:25;;;;;;;16.07;15.67;;;21.80;47.90;;;;;;4950889;28;20524;-57
2023/03/10 11:26:58;;;;;;;16.10;15.60;;;21.80;47.90;;;;;;4950913;28;20469;-56
2023/03/10 11:29:40;;;;;;;16.17;15.67;;;21.80;47.90;;;;;;4951254;28;20495;-58
2023/03/10 11:32:18;;;;;;;16.00;15.50;;;21.80;47.90;;;;;;4951402;28;20528;-54
2023/03/10 11:34:49;;;;;;;15.10;14.70;;;21.80;47.80;;;;;;4950928;28;20484;-55
2023/03/10 11:37:23;;;;;;;15.30;14.90;;;21.80;47.80;;;;;;4950787;28;20480;-56
2023/03/10 11:40:06;;;;;;;15.50;15.10;;;21.80;47.90;;;;;;4950762;28;21034;-55
2023/03/10 11:42:40;;;;;;;15.30;14.90;;;21.80;47.80;;;;;;4950477;29;20915;-52
2023/03/10 11:45:24;;;;;;;15.47;15.07;;;21.80;47.90;;;;;;4950665;28;20508;-52
2023/03/10 11:48:03;;;;;;;15.67;15.27;;;21.80;47.80;;;;;;4950667;28;20495;-57
2023/03/10 11:50:39;;;;;;;14.87;14.47;;;21.80;47.90;;;;;;4950208;28;20480;-56
2023/03/10 11:53:13;;;;;;;16.30;15.90;;;21.80;47.90;;;;;;4950536;28;20481;-55
2023/03/10 11:55:41;;;;;;;15.37;14.97;;;21.80;47.80;;;;;;4950528;28;20888;-53
2023/03/10 11:58:22;;;;;;;15.23;14.63;;;21.80;47.90;;;;;;4950705;28;20507;-56
2023/03/10 12:00:52;;;;;;;15.50;15.10;;;21.80;47.90;;;;;;4950693;28;20939;-52
2023/03/10 12:03:24;;;;;;;15.47;15.07;;;21.80;47.90;;;;;;4950301;28;20485;-54
2023/03/10 12:05:55;;;;;;;15.60;15.20;;;21.80;47.90;;;;;;4950558;28;20512;-54
2023/03/10 12:08:28;;;;;;;15.33;14.93;;;21.80;47.90;;;;;;4950793;28;20475;-56
2023/03/10 12:10:55;;;;;;;15.30;14.90;;;21.80;47.90;;;;;;4950256;29;20455;-52
2023/03/10 12:13:27;;;;;;;17.10;16.60;;;21.80;47.90;;;;;;4950514;28;20476;-56
2023/03/10 12:15:58;;;;;;;15.37;14.90;;;21.80;47.90;;;;;;4950202;29;20508;-57
2023/03/10 12:18:26;;;;;;;15.90;15.30;;;21.80;47.90;;;;;;4950470;28;20459;-58
2023/03/10 12:21:15;;;;;;;17.60;17.10;;;21.80;47.90;;;;;;4950478;28;20456;-57
2023/03/10 12:23:44;;;;;;;16.20;15.80;;;21.80;47.90;;;;;;4950417;28;20634;-56
2023/03/10 12:26:11;;;;;;;15.57;15.17;;;21.80;47.90;;;;;;4950059;28;20519;-53
2023/03/10 12:28:39;;;;;;;15.97;15.57;;;21.80;47.90;;;;;;4950418;28;20488;-55
2023/03/10 12:31:09;;;;;;;17.00;16.60;;;21.80;47.90;;;;;;4950463;28;20754;-54
2023/03/10 12:33:44;;;;;;;15.53;15.10;;;21.80;47.90;;;;;;4950386;28;20445;-54
2023/03/10 12:36:13;;;;;;;16.87;16.47;;;21.90;48.00;;;;;;4950344;28;20468;-54
2023/03/10 12:38:46;;;;;;;16.03;15.63;;;21.90;47.90;;;;;;4950178;28;20944;-57